Time;durP1;ratioP1;P1;durP2;ratioP2;P2;SDS_P1;SDS_P2;PMS_P1;PMS_P2;Temp;Humidity;BMP_temperature;BMP_pressure;BME280_temperature;BME280_humidity;BME280_pressure;Samples;Min_cycle;Max_cycle;Signal;HPM_P1;HPM_P2
2022/01/29 13:05:12;;;;;;;2.97;2.65;;;10.20;99.90;;;;;;5183261;27;20122;-93
2022/01/29 13:31:52;;;;;;;4.65;3.53;;;10.80;99.90;;;;;;5033020;28;20045;-93
2022/01/29 13:43:06;;;;;;;3.25;2.95;;;10.70;99.90;;;;;;4987259;28;20082;-93
2022/01/29 13:50:59;;;;;;;;;;;;;;;;;;;;;
2022/01/29 15:24:35;;;;;;;;;;;10.70;99.90;;;;;;4814062;29;20073;-94
2022/01/29 15:32:16;;;;;;;;;;;;;;;;;;;;;
2022/01/29 15:39:33;;;;;;;;;;;;;;;;;;;;;
2022/01/29 15:45:43;;;;;;;9.18;6.78;;;10.70;99.90;;;;;;4774116;30;20052;-93
2022/01/29 15:52:05;;;;;;;4.72;3.03;;;10.70;99.90;;;;;;4740334;30;20048;-93
2022/01/29 15:54:45;;;;;;;6.20;5.53;;;10.80;99.90;;;;;;4768025;30;20139;-94
2022/01/29 15:57:39;;;;;;;;;;;;;;;;;;;;;
2022/01/29 16:04:40;;;;;;;4.63;4.15;;;10.70;99.90;;;;;;4775041;30;20055;-93
2022/01/29 16:08:22;;;;;;;;;;;;;;;;;;;;;
2022/01/29 16:11:33;;;;;;;;;;;;;;;;;;;;;
2022/01/29 16:30:07;;;;;;;4.15;2.72;;;10.80;99.90;;;;;;4808131;29;20081;-95
2022/01/29 16:32:49;;;;;;;5.85;3.38;;;10.80;99.90;;;;;;4828729;29;20053;-95
2022/01/29 16:35:49;;;;;;;4.75;4.40;;;10.70;99.90;;;;;;4802917;29;20047;-94
2022/01/29 16:38:46;;;;;;;5.97;3.97;;;10.80;99.90;;;;;;4833654;29;20066;-94
2022/01/29 16:41:59;;;;;;;7.68;3.25;;;10.70;99.90;;;;;;4831967;29;20143;-94
2022/01/29 16:44:57;;;;;;;4.65;4.20;;;10.80;99.90;;;;;;4821333;29;20036;-95
2022/01/29 16:51:32;;;;;;;6.82;4.63;;;10.90;99.90;;;;;;4809553;29;20050;-93
2022/01/29 16:54:11;;;;;;;;;;;;;;;;;;;;;
2022/01/29 16:56:46;;;;;;;8.75;3.60;;;;;;;;;;4815714;29;20044;-95
2022/01/29 17:00:23;;;;;;;;;;;;;;;;;;;;;
2022/01/29 17:03:37;;;;;;;8.20;5.07;;;10.80;99.90;;;;;;4788062;29;20043;-95
2022/01/29 17:06:22;;;;;;;4.90;3.17;;;10.80;99.90;;;;;;4815118;29;20099;-95
2022/01/29 17:08:59;;;;;;;12.18;3.83;;;10.80;99.90;;;;;;4798003;29;20044;-93
2022/01/29 17:11:34;;;;;;;8.30;3.22;;;;;;;;;;4800222;30;20046;-95
2022/01/29 17:14:04;;;;;;;3.75;2.88;;;10.90;99.90;;;;;;4787142;29;20545;-95
2022/01/29 17:16:34;;;;;;;6.28;5.40;;;;;;;;;;4770636;30;20055;-94
2022/01/29 17:19:29;;;;;;;8.35;3.60;;;11.00;99.90;;;;;;4813708;29;20074;-95
2022/01/29 17:22:01;;;;;;;3.35;2.10;;;;;;;;;;4788234;30;20582;-94
2022/01/29 17:24:44;;;;;;;5.50;2.92;;;11.00;99.90;;;;;;4813338;29;20441;-93
2022/01/29 17:27:15;;;;;;;5.55;2.95;;;10.90;99.90;;;;;;4785356;30;20042;-94
2022/01/29 17:30:08;;;;;;;5.45;3.67;;;;;;;;;;4786980;30;20043;-94
2022/01/29 17:32:48;;;;;;;5.68;3.20;;;10.90;99.90;;;;;;4829806;29;20039;-94
2022/01/29 17:35:57;;;;;;;11.15;4.47;;;10.90;99.90;;;;;;4815602;29;20508;-94
2022/01/29 17:39:26;;;;;;;11.25;4.45;;;10.90;99.90;;;;;;4788207;30;20036;-95
2022/01/29 17:42:18;;;;;;;5.15;2.75;;;10.90;99.90;;;;;;4803574;29;20099;-95
2022/01/29 17:45:04;;;;;;;4.60;3.88;;;10.90;99.90;;;;;;4795489;30;20139;-94
2022/01/29 17:51:28;;;;;;;10.32;4.35;;;10.80;99.90;;;;;;4795911;29;20044;-95
2022/01/29 17:54:00;;;;;;;7.45;3.70;;;;;;;;;;4817471;29;20039;-94
2022/01/29 17:56:57;;;;;;;11.43;4.30;;;10.80;99.90;;;;;;4803142;30;20039;-94
2022/01/29 17:59:46;;;;;;;5.00;4.60;;;10.70;99.90;;;;;;4802952;30;20066;-95
2022/01/29 18:02:51;;;;;;;3.00;2.83;;;10.70;99.90;;;;;;4817945;29;20035;-94
2022/01/29 18:05:53;;;;;;;9.60;4.55;;;10.70;99.90;;;;;;4799520;30;20051;-95
2022/01/29 18:08:26;;;;;;;9.40;2.88;;;;;;;;;;4818146;29;20035;-94
2022/01/29 18:11:30;;;;;;;13.77;5.75;;;10.70;99.90;;;;;;4817396;29;20107;-95
2022/01/29 18:14:30;;;;;;;;;;;;;;;;;;;;;
2022/01/29 18:17:21;;;;;;;12.30;5.50;;;10.70;99.90;;;;;;4825235;29;20063;-94
2022/01/29 18:20:01;;;;;;;5.72;5.00;;;10.70;99.90;;;;;;4824998;29;20043;-94
2022/01/29 18:23:36;;;;;;;;;;;;;;;;;;;;;
2022/01/29 18:26:36;;;;;;;6.35;4.22;;;10.70;99.90;;;;;;4792902;30;20048;-94
2022/01/29 18:29:38;;;;;;;5.00;4.40;;;10.80;99.90;;;;;;4802350;30;20073;-94
2022/01/29 18:32:58;;;;;;;;;;;;;;;;;;;;;
2022/01/29 18:35:57;;;;;;;19.73;9.10;;;10.70;99.90;;;;;;4807700;29;20063;-95
2022/01/29 18:39:06;;;;;;;10.30;3.45;;;10.80;99.90;;;;;;4803455;30;20035;-94
2022/01/29 18:50:12;;;;;;;5.20;2.47;;;10.70;99.90;;;;;;4789521;30;20155;-93
2022/01/29 18:53:27;;;;;;;3.95;3.25;;;10.60;99.90;;;;;;4787984;30;20040;-93
2022/01/29 19:12:48;;;;;;;13.75;3.85;;;10.30;99.90;;;;;;4769465;30;20044;-92
2022/01/29 19:16:52;;;;;;;8.48;2.55;;;10.20;99.90;;;;;;4740511;30;20041;-94
2022/01/29 19:27:51;;;;;;;11.77;4.68;;;10.00;99.90;;;;;;4752247;30;19969;-93
2022/01/29 19:30:57;;;;;;;13.32;4.10;;;;;;;;;;4706280;30;20048;-92
2022/01/29 19:34:10;;;;;;;11.00;4.22;;;9.90;99.90;;;;;;4738081;30;20127;-94
2022/01/29 19:37:06;;;;;;;14.13;4.47;;;9.90;99.90;;;;;;4668830;30;20051;-93
2022/01/29 19:40:45;;;;;;;9.23;4.93;;;9.80;99.90;;;;;;4683796;30;20063;-94
2022/01/29 19:44:22;;;;;;;16.35;5.15;;;9.80;99.90;;;;;;4670200;30;20050;-93
2022/01/29 19:47:23;;;;;;;12.90;3.30;;;9.70;99.90;;;;;;4662208;30;20046;-92
2022/01/29 19:50:23;;;;;;;17.52;4.45;;;9.70;99.90;;;;;;4658894;30;20051;-92
2022/01/29 19:56:47;;;;;;;16.08;6.38;;;9.60;99.90;;;;;;4748978;30;20049;-93
2022/01/29 20:00:23;;;;;;;17.33;5.25;;;9.60;99.90;;;;;;4745470;30;20041;-93
2022/01/29 20:06:41;;;;;;;13.85;3.35;;;9.50;99.90;;;;;;4747327;30;20033;-92
2022/01/29 20:10:29;;;;;;;10.45;3.92;;;9.40;99.90;;;;;;4725802;30;20086;-93
2022/01/29 20:16:56;;;;;;;18.38;8.50;;;9.40;99.90;;;;;;4711440;30;20467;-94
2022/01/29 20:24:28;;;;;;;16.10;6.40;;;9.20;99.90;;;;;;4737743;30;20060;-94
2022/01/29 20:27:19;;;;;;;16.65;5.00;;;9.20;99.90;;;;;;4773168;30;20040;-92
2022/01/29 20:30:11;;;;;;;11.57;4.72;;;9.10;99.90;;;;;;4809634;29;20054;-94
2022/01/29 20:32:55;;;;;;;26.33;4.07;;;9.10;99.90;;;;;;4821964;29;20097;-93
2022/01/29 20:35:43;;;;;;;15.32;6.93;;;9.00;99.90;;;;;;4837542;29;20043;-94
2022/01/29 20:38:25;;;;;;;8.63;4.15;;;;;;;;;;4797116;29;20044;-94
2022/01/29 20:41:36;;;;;;;15.88;6.57;;;9.00;99.90;;;;;;4801916;30;20035;-94
2022/01/29 20:44:43;;;;;;;16.77;6.25;;;9.00;99.90;;;;;;4804542;30;20131;-93
2022/01/29 20:47:52;;;;;;;15.13;7.35;;;8.90;99.90;;;;;;4799319;30;20138;-92
2022/01/29 20:50:38;;;;;;;21.25;8.43;;;8.80;99.90;;;;;;4780967;30;20039;-94
2022/01/29 20:53:18;;;;;;;25.40;5.28;;;8.70;99.90;;;;;;4785050;30;20052;-92
2022/01/29 20:55:53;;;;;;;15.07;5.20;;;;;;;;;;4786869;30;20055;-93
2022/01/29 20:58:22;;;;;;;18.88;6.70;;;;;;;;;;4801221;30;20047;-93
2022/01/29 21:01:19;;;;;;;14.75;5.28;;;8.70;99.90;;;;;;4802963;29;20020;-94
2022/01/29 21:04:31;;;;;;;11.30;6.13;;;8.70;99.90;;;;;;4803545;30;20116;-93
2022/01/29 21:07:43;;;;;;;;;;;;;;;;;;;;;
2022/01/29 21:10:47;;;;;;;15.02;7.07;;;8.50;99.90;;;;;;4787988;30;20289;-95
2022/01/29 21:38:44;;;;;;;20.17;9.07;;;8.20;99.90;;;;;;4858275;29;20068;-93
2022/01/29 21:44:58;;;;;;;;;;;;;;;;;;;;;
2022/01/29 21:48:20;;;;;;;;;;;;;;;;;;;;;
2022/01/29 21:51:14;;;;;;;12.60;6.60;;;;;;;;;;4886759;29;20077;-91
2022/01/29 21:54:13;;;;;;;10.32;6.15;;;8.10;99.90;;;;;;4873939;29;20040;-93
2022/01/29 21:57:00;;;;;;;15.25;7.22;;;8.00;99.90;;;;;;4867518;29;20041;-93
2022/01/29 21:59:42;;;;;;;23.92;6.00;;;8.00;99.90;;;;;;4851073;29;20042;-93
2022/01/29 22:02:24;;;;;;;11.50;5.20;;;7.90;99.90;;;;;;4852282;29;20045;-94
2022/01/29 22:05:22;;;;;;;16.70;6.78;;;7.90;99.90;;;;;;4830130;29;20091;-94
2022/01/29 22:07:51;;;;;;;18.75;5.82;;;;;;;;;;4819902;29;20489;-92
2022/01/29 22:11:15;;;;;;;;;;;;;;;;;;;;;
2022/01/29 22:14:14;;;;;;;20.55;6.93;;;7.80;99.90;;;;;;4810790;29;20059;-94
2022/01/29 22:20:39;;;;;;;21.83;6.80;;;7.70;99.90;;;;;;4735288;30;20048;-94
2022/01/29 22:23:20;;;;;;;4.70;3.95;;;7.70;99.90;;;;;;4733786;30;20129;-93
2022/01/29 22:26:22;;;;;;;22.23;5.72;;;7.70;99.90;;;;;;4742820;30;20126;-94
2022/01/29 22:29:41;;;;;;;11.95;5.45;;;7.60;99.90;;;;;;4743334;30;20043;-94
2022/01/29 22:32:46;;;;;;;17.15;6.35;;;7.60;99.90;;;;;;4720163;30;20041;-94
2022/01/29 22:35:39;;;;;;;10.68;5.82;;;7.50;99.90;;;;;;4729208;30;20064;-93
2022/01/29 22:39:02;;;;;;;12.70;5.25;;;9.80;99.90;;;;;;4743901;30;20052;-93
2022/01/29 22:41:37;;;;;;;5.72;5.07;;;;;;;;;;4738426;30;20049;-92
2022/01/29 22:44:21;;;;;;;24.13;5.07;;;7.40;99.90;;;;;;4775124;30;20052;-96
2022/01/29 22:47:44;;;;;;;;;;;;;;;;;;;;;
2022/01/29 22:50:29;;;;;;;16.10;7.05;;;7.30;99.90;;;;;;4760916;30;20125;-96
2022/01/29 22:53:10;;;;;;;14.00;5.07;;;7.30;99.90;;;;;;4764430;30;20047;-94
2022/01/29 22:55:59;;;;;;;13.68;5.93;;;7.30;99.90;;;;;;4765569;30;20043;-95
2022/01/29 22:58:37;;;;;;;6.25;5.00;;;7.20;99.90;;;;;;4806765;29;20039;-96
2022/01/29 23:01:45;;;;;;;10.93;5.78;;;7.30;99.90;;;;;;4794510;29;20453;-95
2022/01/29 23:04:36;;;;;;;8.60;5.68;;;7.30;99.90;;;;;;4810623;29;20055;-95
2022/01/29 23:11:17;;;;;;;18.98;5.28;;;7.20;99.90;;;;;;4790552;30;20043;-96
2022/01/29 23:14:20;;;;;;;12.85;7.53;;;7.20;99.90;;;;;;4785351;30;20044;-96
2022/01/29 23:17:22;;;;;;;13.30;6.10;;;7.20;99.90;;;;;;4807612;29;20046;-96
2022/01/29 23:20:28;;;;;;;9.60;4.78;;;7.20;99.90;;;;;;4813759;29;20109;-96
2022/01/29 23:23:34;;;;;;;12.02;3.75;;;7.20;99.90;;;;;;4814644;29;20059;-96
2022/01/29 23:26:40;;;;;;;11.57;3.97;;;6.80;99.90;;;;;;4841024;29;20037;-95
2022/01/29 23:32:34;;;;;;;15.15;7.70;;;;;;;;;;4846516;29;20038;-96
2022/01/29 23:35:35;;;;;;;12.88;5.53;;;7.00;99.90;;;;;;4832164;29;20046;-95
2022/01/29 23:38:38;;;;;;;17.85;5.75;;;7.00;99.90;;;;;;4834228;29;20046;-96
2022/01/29 23:50:28;;;;;;;13.10;5.40;;;6.80;99.90;;;;;;4845062;29;20038;-94
2022/01/29 23:53:07;;;;;;;6.53;3.97;;;6.80;99.90;;;;;;4820067;29;20049;-96
2022/01/29 23:55:51;;;;;;;18.05;6.78;;;6.80;99.90;;;;;;4828466;29;20042;-96
2022/01/29 23:58:32;;;;;;;18.90;4.95;;;6.80;99.90;;;;;;4830476;29;20101;-95
